sensor_id;sensor_type;location;lat;lon;timestamp;P1;durP1;ratioP1;P2;durP2;ratioP2
6133;SDS011;3098;42.678;23.364;2022-08-01T00:02:18;5.13;;;4.13;;
6133;SDS011;3098;42.678;23.364;2022-08-01T00:04:46;5.43;;;4.00;;
6133;SDS011;3098;42.678;23.364;2022-08-01T00:07:13;6.03;;;4.32;;
6133;SDS011;3098;42.678;23.364;2022-08-01T00:09:40;5.28;;;4.10;;
6133;SDS011;3098;42.678;23.364;2022-08-01T00:12:07;6.22;;;3.53;;
6133;SDS011;3098;42.678;23.364;2022-08-01T00:14:34;4.90;;;4.40;;
6133;SDS011;3098;42.678;23.364;2022-08-01T00:17:01;6.57;;;5.40;;
6133;SDS011;3098;42.678;23.364;2022-08-01T00:19:28;7.38;;;5.90;;
6133;SDS011;3098;42.678;23.364;2022-08-01T00:21:56;9.05;;;6.50;;
6133;SDS011;3098;42.678;23.364;2022-08-01T00:24:23;13.80;;;6.60;;
6133;SDS011;3098;42.678;23.364;2022-08-01T00:26:51;11.85;;;7.05;;
6133;SDS011;3098;42.678;23.364;2022-08-01T00:29:17;8.93;;;7.25;;
6133;SDS011;3098;42.678;23.364;2022-08-01T00:31:44;9.18;;;7.45;;
6133;SDS011;3098;42.678;23.364;2022-08-01T00:34:11;10.90;;;7.72;;
6133;SDS011;3098;42.678;23.364;2022-08-01T00:36:38;9.63;;;8.13;;
6133;SDS011;3098;42.678;23.364;2022-08-01T00:39:07;9.43;;;8.43;;
6133;SDS011;3098;42.678;23.364;2022-08-01T00:41:34;9.40;;;7.97;;
6133;SDS011;3098;42.678;23.364;2022-08-01T00:44:02;12.43;;;8.07;;
6133;SDS011;3098;42.678;23.364;2022-08-01T00:46:31;11.93;;;8.32;;
6133;SDS011;3098;42.678;23.364;2022-08-01T00:48:58;8.57;;;7.68;;
6133;SDS011;3098;42.678;23.364;2022-08-01T00:51:26;9.50;;;8.10;;
6133;SDS011;3098;42.678;23.364;2022-08-01T00:53:53;10.65;;;8.23;;
6133;SDS011;3098;42.678;23.364;2022-08-01T00:56:24;13.35;;;7.93;;
6133;SDS011;3098;42.678;23.364;2022-08-01T00:58:52;12.10;;;8.20;;
6133;SDS011;3098;42.678;23.364;2022-08-01T01:01:19;11.55;;;8.73;;
6133;SDS011;3098;42.678;23.364;2022-08-01T01:03:46;11.55;;;8.20;;
6133;SDS011;3098;42.678;23.364;2022-08-01T01:06:18;12.88;;;9.23;;
6133;SDS011;3098;42.678;23.364;2022-08-01T01:08:55;9.32;;;7.68;;
6133;SDS011;3098;42.678;23.364;2022-08-01T01:11:35;9.35;;;8.18;;
6133;SDS011;3098;42.678;23.364;2022-08-01T01:14:13;12.27;;;9.07;;
6133;SDS011;3098;42.678;23.364;2022-08-01T01:16:48;10.82;;;7.95;;
6133;SDS011;3098;42.678;23.364;2022-08-01T01:19:20;10.00;;;7.35;;
6133;SDS011;3098;42.678;23.364;2022-08-01T01:21:57;10.18;;;8.75;;
6133;SDS011;3098;42.678;23.364;2022-08-01T01:24:39;10.52;;;7.95;;
6133;SDS011;3098;42.678;23.364;2022-08-01T01:27:16;18.42;;;9.43;;
6133;SDS011;3098;42.678;23.364;2022-08-01T01:29:52;8.93;;;6.85;;
6133;SDS011;3098;42.678;23.364;2022-08-01T01:32:22;8.00;;;6.45;;
6133;SDS011;3098;42.678;23.364;2022-08-01T01:34:58;9.43;;;7.13;;
6133;SDS011;3098;42.678;23.364;2022-08-01T01:37:26;9.45;;;7.13;;
6133;SDS011;3098;42.678;23.364;2022-08-01T01:39:56;8.15;;;6.78;;
6133;SDS011;3098;42.678;23.364;2022-08-01T01:42:23;8.60;;;7.00;;
6133;SDS011;3098;42.678;23.364;2022-08-01T01:44:54;7.38;;;5.82;;
6133;SDS011;3098;42.678;23.364;2022-08-01T01:47:21;8.85;;;5.30;;
6133;SDS011;3098;42.678;23.364;2022-08-01T01:49:50;9.95;;;7.07;;
6133;SDS011;3098;42.678;23.364;2022-08-01T01:52:20;7.03;;;5.45;;
6133;SDS011;3098;42.678;23.364;2022-08-01T01:54:50;8.43;;;4.82;;
6133;SDS011;3098;42.678;23.364;2022-08-01T01:57:18;6.43;;;4.70;;
6133;SDS011;3098;42.678;23.364;2022-08-01T01:59:48;6.43;;;4.80;;
6133;SDS011;3098;42.678;23.364;2022-08-01T02:02:18;4.93;;;4.25;;
6133;SDS011;3098;42.678;23.364;2022-08-01T02:04:46;5.40;;;4.03;;
6133;SDS011;3098;42.678;23.364;2022-08-01T02:07:16;4.70;;;4.05;;
6133;SDS011;3098;42.678;23.364;2022-08-01T02:09:47;5.97;;;3.97;;
6133;SDS011;3098;42.678;23.364;2022-08-01T02:12:16;4.68;;;4.15;;
6133;SDS011;3098;42.678;23.364;2022-08-01T02:14:47;4.90;;;4.25;;
6133;SDS011;3098;42.678;23.364;2022-08-01T02:17:18;9.77;;;4.55;;
6133;SDS011;3098;42.678;23.364;2022-08-01T02:19:48;6.57;;;4.05;;
6133;SDS011;3098;42.678;23.364;2022-08-01T02:22:16;7.97;;;4.20;;
6133;SDS011;3098;42.678;23.364;2022-08-01T02:24:49;7.93;;;4.05;;
6133;SDS011;3098;42.678;23.364;2022-08-01T02:27:21;7.43;;;3.90;;
6133;SDS011;3098;42.678;23.364;2022-08-01T02:29:52;5.70;;;4.35;;
6133;SDS011;3098;42.678;23.364;2022-08-01T02:32:26;11.02;;;4.20;;
6133;SDS011;3098;42.678;23.364;2022-08-01T02:34:58;8.38;;;4.10;;
6133;SDS011;3098;42.678;23.364;2022-08-01T02:37:29;6.72;;;3.90;;
6133;SDS011;3098;42.678;23.364;2022-08-01T02:40:00;5.28;;;4.03;;
6133;SDS011;3098;42.678;23.364;2022-08-01T02:42:27;11.13;;;4.00;;
6133;SDS011;3098;42.678;23.364;2022-08-01T02:44:56;7.38;;;3.92;;
6133;SDS011;3098;42.678;23.364;2022-08-01T02:47:25;4.05;;;3.17;;
6133;SDS011;3098;42.678;23.364;2022-08-01T02:49:55;6.40;;;3.67;;
6133;SDS011;3098;42.678;23.364;2022-08-01T02:52:26;8.50;;;4.20;;
6133;SDS011;3098;42.678;23.364;2022-08-01T02:54:55;8.93;;;5.13;;
6133;SDS011;3098;42.678;23.364;2022-08-01T02:57:23;8.73;;;4.90;;
6133;SDS011;3098;42.678;23.364;2022-08-01T02:59:52;11.45;;;4.82;;
6133;SDS011;3098;42.678;23.364;2022-08-01T03:02:21;7.95;;;4.90;;
6133;SDS011;3098;42.678;23.364;2022-08-01T03:04:51;14.07;;;8.85;;
6133;SDS011;3098;42.678;23.364;2022-08-01T03:07:20;10.13;;;5.60;;
6133;SDS011;3098;42.678;23.364;2022-08-01T03:09:49;8.10;;;4.95;;
6133;SDS011;3098;42.678;23.364;2022-08-01T03:12:17;8.00;;;5.18;;
6133;SDS011;3098;42.678;23.364;2022-08-01T03:14:48;7.20;;;4.45;;
6133;SDS011;3098;42.678;23.364;2022-08-01T03:17:18;7.25;;;5.15;;
6133;SDS011;3098;42.678;23.364;2022-08-01T03:19:48;7.40;;;5.50;;
6133;SDS011;3098;42.678;23.364;2022-08-01T03:22:19;9.43;;;4.63;;
6133;SDS011;3098;42.678;23.364;2022-08-01T03:24:50;5.88;;;4.63;;
6133;SDS011;3098;42.678;23.364;2022-08-01T03:27:19;7.65;;;4.88;;
6133;SDS011;3098;42.678;23.364;2022-08-01T03:29:49;6.72;;;5.00;;
6133;SDS011;3098;42.678;23.364;2022-08-01T03:32:17;7.88;;;4.85;;
6133;SDS011;3098;42.678;23.364;2022-08-01T03:34:47;6.55;;;5.22;;
6133;SDS011;3098;42.678;23.364;2022-08-01T03:37:17;8.35;;;5.30;;
6133;SDS011;3098;42.678;23.364;2022-08-01T03:39:54;8.35;;;5.13;;
6133;SDS011;3098;42.678;23.364;2022-08-01T03:42:25;6.35;;;4.72;;
6133;SDS011;3098;42.678;23.364;2022-08-01T03:44:59;7.53;;;4.85;;
6133;SDS011;3098;42.678;23.364;2022-08-01T03:47:31;5.35;;;4.82;;
6133;SDS011;3098;42.678;23.364;2022-08-01T03:50:01;7.55;;;4.75;;
6133;SDS011;3098;42.678;23.364;2022-08-01T03:52:31;9.68;;;5.15;;
6133;SDS011;3098;42.678;23.364;2022-08-01T03:55:01;8.45;;;5.20;;
6133;SDS011;3098;42.678;23.364;2022-08-01T03:57:32;7.82;;;4.90;;
6133;SDS011;3098;42.678;23.364;2022-08-01T04:00:00;7.25;;;5.25;;
6133;SDS011;3098;42.678;23.364;2022-08-01T04:02:27;7.28;;;5.65;;
6133;SDS011;3098;42.678;23.364;2022-08-01T04:04:54;6.82;;;5.13;;
6133;SDS011;3098;42.678;23.364;2022-08-01T04:07:24;16.40;;;5.60;;
6133;SDS011;3098;42.678;23.364;2022-08-01T04:09:53;11.68;;;7.07;;
6133;SDS011;3098;42.678;23.364;2022-08-01T04:12:21;10.48;;;6.38;;
6133;SDS011;3098;42.678;23.364;2022-08-01T04:14:48;7.82;;;5.90;;
6133;SDS011;3098;42.678;23.364;2022-08-01T04:17:15;7.78;;;5.22;;
6133;SDS011;3098;42.678;23.364;2022-08-01T04:19:42;16.25;;;6.55;;
6133;SDS011;3098;42.678;23.364;2022-08-01T04:22:13;11.95;;;7.53;;
6133;SDS011;3098;42.678;23.364;2022-08-01T04:24:47;12.63;;;8.68;;
6133;SDS011;3098;42.678;23.364;2022-08-01T04:27:21;11.32;;;7.00;;
6133;SDS011;3098;42.678;23.364;2022-08-01T04:29:53;13.93;;;7.78;;
6133;SDS011;3098;42.678;23.364;2022-08-01T04:32:24;12.80;;;6.47;;
6133;SDS011;3098;42.678;23.364;2022-08-01T04:34:53;13.30;;;6.40;;
6133;SDS011;3098;42.678;23.364;2022-08-01T04:37:25;14.90;;;7.45;;
6133;SDS011;3098;42.678;23.364;2022-08-01T04:39:54;8.40;;;6.57;;
6133;SDS011;3098;42.678;23.364;2022-08-01T04:42:24;18.80;;;7.75;;
6133;SDS011;3098;42.678;23.364;2022-08-01T04:44:52;12.50;;;7.70;;
6133;SDS011;3098;42.678;23.364;2022-08-01T04:47:20;24.02;;;9.20;;
6133;SDS011;3098;42.678;23.364;2022-08-01T04:49:48;12.75;;;7.88;;
6133;SDS011;3098;42.678;23.364;2022-08-01T04:52:16;15.98;;;7.75;;
6133;SDS011;3098;42.678;23.364;2022-08-01T04:54:44;14.45;;;8.48;;
6133;SDS011;3098;42.678;23.364;2022-08-01T04:57:12;16.58;;;8.73;;
6133;SDS011;3098;42.678;23.364;2022-08-01T04:59:41;21.95;;;8.75;;
6133;SDS011;3098;42.678;23.364;2022-08-01T05:02:12;11.10;;;7.53;;
6133;SDS011;3098;42.678;23.364;2022-08-01T05:04:40;13.98;;;7.40;;
6133;SDS011;3098;42.678;23.364;2022-08-01T05:07:09;13.98;;;7.40;;
6133;SDS011;3098;42.678;23.364;2022-08-01T05:09:37;24.05;;;13.05;;
6133;SDS011;3098;42.678;23.364;2022-08-01T05:12:06;13.75;;;7.28;;
6133;SDS011;3098;42.678;23.364;2022-08-01T05:14:35;18.65;;;9.10;;
6133;SDS011;3098;42.678;23.364;2022-08-01T05:17:05;20.58;;;9.10;;
6133;SDS011;3098;42.678;23.364;2022-08-01T05:19:34;15.73;;;8.55;;
6133;SDS011;3098;42.678;23.364;2022-08-01T05:22:03;17.70;;;8.05;;
6133;SDS011;3098;42.678;23.364;2022-08-01T05:24:31;8.27;;;6.00;;
6133;SDS011;3098;42.678;23.364;2022-08-01T05:26:59;8.02;;;5.20;;
6133;SDS011;3098;42.678;23.364;2022-08-01T05:29:26;7.82;;;5.60;;
6133;SDS011;3098;42.678;23.364;2022-08-01T05:31:53;15.32;;;7.55;;
6133;SDS011;3098;42.678;23.364;2022-08-01T05:34:23;9.20;;;5.28;;
6133;SDS011;3098;42.678;23.364;2022-08-01T05:36:51;9.98;;;4.88;;
6133;SDS011;3098;42.678;23.364;2022-08-01T05:39:18;7.28;;;4.88;;
6133;SDS011;3098;42.678;23.364;2022-08-01T05:41:46;11.05;;;5.63;;
6133;SDS011;3098;42.678;23.364;2022-08-01T05:44:13;6.85;;;3.88;;
6133;SDS011;3098;42.678;23.364;2022-08-01T05:46:40;5.28;;;4.32;;
6133;SDS011;3098;42.678;23.364;2022-08-01T05:49:07;5.70;;;4.00;;
6133;SDS011;3098;42.678;23.364;2022-08-01T05:51:36;8.63;;;5.63;;
6133;SDS011;3098;42.678;23.364;2022-08-01T05:54:03;6.93;;;3.97;;
6133;SDS011;3098;42.678;23.364;2022-08-01T05:56:30;6.20;;;4.10;;
6133;SDS011;3098;42.678;23.364;2022-08-01T05:58:57;7.63;;;4.53;;
6133;SDS011;3098;42.678;23.364;2022-08-01T06:01:25;8.25;;;4.20;;
6133;SDS011;3098;42.678;23.364;2022-08-01T06:03:52;9.10;;;3.80;;
6133;SDS011;3098;42.678;23.364;2022-08-01T06:06:20;7.75;;;4.25;;
6133;SDS011;3098;42.678;23.364;2022-08-01T06:08:48;9.20;;;4.15;;
6133;SDS011;3098;42.678;23.364;2022-08-01T06:11:17;9.15;;;3.70;;
6133;SDS011;3098;42.678;23.364;2022-08-01T06:13:46;5.38;;;3.92;;
6133;SDS011;3098;42.678;23.364;2022-08-01T06:16:21;9.90;;;3.50;;
6133;SDS011;3098;42.678;23.364;2022-08-01T06:18:48;7.03;;;3.70;;
6133;SDS011;3098;42.678;23.364;2022-08-01T06:21:15;5.70;;;4.00;;
6133;SDS011;3098;42.678;23.364;2022-08-01T06:23:42;8.13;;;3.50;;
6133;SDS011;3098;42.678;23.364;2022-08-01T06:26:11;7.00;;;3.53;;
6133;SDS011;3098;42.678;23.364;2022-08-01T06:28:39;8.30;;;3.60;;
6133;SDS011;3098;42.678;23.364;2022-08-01T06:31:06;7.75;;;3.42;;
6133;SDS011;3098;42.678;23.364;2022-08-01T06:33:34;5.03;;;3.58;;
6133;SDS011;3098;42.678;23.364;2022-08-01T06:36:03;5.13;;;2.75;;
6133;SDS011;3098;42.678;23.364;2022-08-01T06:38:30;8.15;;;3.35;;
6133;SDS011;3098;42.678;23.364;2022-08-01T06:40:57;6.45;;;3.00;;
6133;SDS011;3098;42.678;23.364;2022-08-01T06:43:26;3.85;;;2.88;;
6133;SDS011;3098;42.678;23.364;2022-08-01T06:45:56;7.43;;;4.22;;
6133;SDS011;3098;42.678;23.364;2022-08-01T06:48:23;7.45;;;3.58;;
6133;SDS011;3098;42.678;23.364;2022-08-01T06:50:51;6.30;;;3.20;;
6133;SDS011;3098;42.678;23.364;2022-08-01T06:53:33;6.38;;;3.38;;
6133;SDS011;3098;42.678;23.364;2022-08-01T06:56:04;3.70;;;3.15;;
6133;SDS011;3098;42.678;23.364;2022-08-01T06:58:34;3.13;;;2.80;;
6133;SDS011;3098;42.678;23.364;2022-08-01T07:01:04;4.72;;;3.10;;
6133;SDS011;3098;42.678;23.364;2022-08-01T07:03:39;4.22;;;3.40;;
6133;SDS011;3098;42.678;23.364;2022-08-01T07:06:06;5.90;;;2.88;;
6133;SDS011;3098;42.678;23.364;2022-08-01T07:08:34;3.65;;;2.78;;
6133;SDS011;3098;42.678;23.364;2022-08-01T07:11:01;5.13;;;2.80;;
6133;SDS011;3098;42.678;23.364;2022-08-01T07:13:29;3.85;;;2.88;;
6133;SDS011;3098;42.678;23.364;2022-08-01T07:15:59;6.30;;;3.17;;
6133;SDS011;3098;42.678;23.364;2022-08-01T07:18:26;4.40;;;3.15;;
6133;SDS011;3098;42.678;23.364;2022-08-01T07:20:53;7.20;;;3.35;;
6133;SDS011;3098;42.678;23.364;2022-08-01T07:23:20;5.28;;;2.97;;
6133;SDS011;3098;42.678;23.364;2022-08-01T07:25:47;4.03;;;3.28;;
6133;SDS011;3098;42.678;23.364;2022-08-01T07:28:16;4.78;;;3.47;;
6133;SDS011;3098;42.678;23.364;2022-08-01T07:30:43;6.65;;;3.03;;
6133;SDS011;3098;42.678;23.364;2022-08-01T07:33:12;5.32;;;2.85;;
6133;SDS011;3098;42.678;23.364;2022-08-01T07:35:39;4.65;;;2.95;;
6133;SDS011;3098;42.678;23.364;2022-08-01T07:38:06;8.48;;;2.95;;
6133;SDS011;3098;42.678;23.364;2022-08-01T07:40:33;3.15;;;2.80;;
6133;SDS011;3098;42.678;23.364;2022-08-01T07:43:01;3.63;;;2.60;;
6133;SDS011;3098;42.678;23.364;2022-08-01T07:45:28;6.57;;;2.80;;
6133;SDS011;3098;42.678;23.364;2022-08-01T07:47:56;4.15;;;3.45;;
6133;SDS011;3098;42.678;23.364;2022-08-01T07:50:35;3.80;;;2.53;;
6133;SDS011;3098;42.678;23.364;2022-08-01T07:53:16;5.30;;;2.88;;
6133;SDS011;3098;42.678;23.364;2022-08-01T07:55:43;6.38;;;2.92;;
6133;SDS011;3098;42.678;23.364;2022-08-01T07:58:10;8.20;;;2.90;;
6133;SDS011;3098;42.678;23.364;2022-08-01T08:00:38;4.43;;;3.22;;
6133;SDS011;3098;42.678;23.364;2022-08-01T08:03:04;4.43;;;3.40;;
6133;SDS011;3098;42.678;23.364;2022-08-01T08:05:31;3.70;;;3.25;;
6133;SDS011;3098;42.678;23.364;2022-08-01T08:08:02;7.22;;;3.47;;
6133;SDS011;3098;42.678;23.364;2022-08-01T08:10:31;4.15;;;3.13;;
6133;SDS011;3098;42.678;23.364;2022-08-01T08:13:00;8.15;;;3.20;;
6133;SDS011;3098;42.678;23.364;2022-08-01T08:15:27;3.20;;;2.75;;
6133;SDS011;3098;42.678;23.364;2022-08-01T08:17:54;3.45;;;2.80;;
6133;SDS011;3098;42.678;23.364;2022-08-01T08:20:21;3.70;;;3.00;;
6133;SDS011;3098;42.678;23.364;2022-08-01T08:22:52;4.40;;;3.00;;
6133;SDS011;3098;42.678;23.364;2022-08-01T08:25:20;6.28;;;3.17;;
6133;SDS011;3098;42.678;23.364;2022-08-01T08:27:48;7.97;;;3.13;;
6133;SDS011;3098;42.678;23.364;2022-08-01T08:30:16;5.88;;;3.50;;
6133;SDS011;3098;42.678;23.364;2022-08-01T08:32:43;5.63;;;3.30;;
6133;SDS011;3098;42.678;23.364;2022-08-01T08:35:13;5.10;;;3.72;;
6133;SDS011;3098;42.678;23.364;2022-08-01T08:37:40;7.25;;;3.53;;
6133;SDS011;3098;42.678;23.364;2022-08-01T08:40:08;4.35;;;3.33;;
6133;SDS011;3098;42.678;23.364;2022-08-01T08:42:37;3.20;;;2.90;;
6133;SDS011;3098;42.678;23.364;2022-08-01T08:45:18;4.90;;;3.00;;
6133;SDS011;3098;42.678;23.364;2022-08-01T08:47:45;5.95;;;3.55;;
6133;SDS011;3098;42.678;23.364;2022-08-01T08:50:14;4.40;;;3.38;;
6133;SDS011;3098;42.678;23.364;2022-08-01T08:52:41;6.22;;;3.45;;
6133;SDS011;3098;42.678;23.364;2022-08-01T08:55:11;3.55;;;3.17;;
6133;SDS011;3098;42.678;23.364;2022-08-01T08:57:41;3.20;;;2.75;;
6133;SDS011;3098;42.678;23.364;2022-08-01T09:00:11;6.82;;;3.30;;
6133;SDS011;3098;42.678;23.364;2022-08-01T09:02:43;5.95;;;3.22;;
6133;SDS011;3098;42.678;23.364;2022-08-01T09:05:14;4.30;;;3.30;;
6133;SDS011;3098;42.678;23.364;2022-08-01T09:07:42;3.15;;;2.85;;
6133;SDS011;3098;42.678;23.364;2022-08-01T09:10:09;3.70;;;3.00;;
6133;SDS011;3098;42.678;23.364;2022-08-01T09:15:40;4.18;;;2.60;;
6133;SDS011;3098;42.678;23.364;2022-08-01T09:18:09;4.72;;;2.83;;
6133;SDS011;3098;42.678;23.364;2022-08-01T09:21:00;6.28;;;3.28;;
6133;SDS011;3098;42.678;23.364;2022-08-01T09:23:36;9.02;;;2.85;;
6133;SDS011;3098;42.678;23.364;2022-08-01T09:26:07;3.28;;;2.90;;
6133;SDS011;3098;42.678;23.364;2022-08-01T09:28:36;4.88;;;3.03;;
6133;SDS011;3098;42.678;23.364;2022-08-01T09:31:08;4.53;;;3.13;;
6133;SDS011;3098;42.678;23.364;2022-08-01T09:33:47;4.53;;;3.17;;
6133;SDS011;3098;42.678;23.364;2022-08-01T09:36:15;3.97;;;3.00;;
6133;SDS011;3098;42.678;23.364;2022-08-01T09:38:43;3.50;;;2.47;;
6133;SDS011;3098;42.678;23.364;2022-08-01T09:41:10;4.80;;;3.10;;
6133;SDS011;3098;42.678;23.364;2022-08-01T09:43:39;11.00;;;2.92;;
6133;SDS011;3098;42.678;23.364;2022-08-01T09:46:13;4.55;;;2.63;;
6133;SDS011;3098;42.678;23.364;2022-08-01T09:48:42;4.68;;;3.28;;
6133;SDS011;3098;42.678;23.364;2022-08-01T09:51:30;7.03;;;2.95;;
6133;SDS011;3098;42.678;23.364;2022-08-01T09:53:59;6.57;;;2.75;;
6133;SDS011;3098;42.678;23.364;2022-08-01T09:56:35;5.03;;;3.00;;
6133;SDS011;3098;42.678;23.364;2022-08-01T09:59:05;3.78;;;2.92;;
6133;SDS011;3098;42.678;23.364;2022-08-01T10:01:44;4.57;;;3.30;;
6133;SDS011;3098;42.678;23.364;2022-08-01T10:04:12;3.20;;;2.90;;
6133;SDS011;3098;42.678;23.364;2022-08-01T10:06:42;3.72;;;2.85;;
6133;SDS011;3098;42.678;23.364;2022-08-01T10:09:26;4.10;;;3.00;;
6133;SDS011;3098;42.678;23.364;2022-08-01T10:11:55;5.38;;;3.20;;
6133;SDS011;3098;42.678;23.364;2022-08-01T10:14:25;5.82;;;3.28;;
6133;SDS011;3098;42.678;23.364;2022-08-01T10:16:53;4.63;;;3.72;;
6133;SDS011;3098;42.678;23.364;2022-08-01T10:19:23;5.05;;;3.75;;
6133;SDS011;3098;42.678;23.364;2022-08-01T10:21:52;7.65;;;3.42;;
6133;SDS011;3098;42.678;23.364;2022-08-01T10:24:20;4.32;;;3.42;;
6133;SDS011;3098;42.678;23.364;2022-08-01T10:26:48;7.22;;;3.40;;
6133;SDS011;3098;42.678;23.364;2022-08-01T10:29:20;4.70;;;3.50;;
6133;SDS011;3098;42.678;23.364;2022-08-01T10:31:51;6.82;;;2.97;;
6133;SDS011;3098;42.678;23.364;2022-08-01T10:34:18;4.57;;;3.17;;
6133;SDS011;3098;42.678;23.364;2022-08-01T10:36:47;4.45;;;3.25;;
6133;SDS011;3098;42.678;23.364;2022-08-01T10:39:14;3.92;;;3.08;;
6133;SDS011;3098;42.678;23.364;2022-08-01T10:41:44;5.18;;;3.08;;
6133;SDS011;3098;42.678;23.364;2022-08-01T10:44:12;6.78;;;3.10;;
6133;SDS011;3098;42.678;23.364;2022-08-01T10:46:42;5.07;;;3.47;;
6133;SDS011;3098;42.678;23.364;2022-08-01T10:49:16;5.30;;;3.40;;
6133;SDS011;3098;42.678;23.364;2022-08-01T10:51:46;6.50;;;4.95;;
6133;SDS011;3098;42.678;23.364;2022-08-01T10:54:14;8.20;;;3.10;;
6133;SDS011;3098;42.678;23.364;2022-08-01T10:56:43;4.15;;;3.05;;
6133;SDS011;3098;42.678;23.364;2022-08-01T10:59:14;2.75;;;2.55;;
6133;SDS011;3098;42.678;23.364;2022-08-01T11:01:52;4.32;;;2.90;;
6133;SDS011;3098;42.678;23.364;2022-08-01T11:04:32;4.05;;;2.92;;
6133;SDS011;3098;42.678;23.364;2022-08-01T11:07:05;7.28;;;3.20;;
6133;SDS011;3098;42.678;23.364;2022-08-01T11:09:41;4.20;;;3.10;;
6133;SDS011;3098;42.678;23.364;2022-08-01T11:12:09;2.83;;;2.50;;
6133;SDS011;3098;42.678;23.364;2022-08-01T11:17:46;3.47;;;2.92;;
6133;SDS011;3098;42.678;23.364;2022-08-01T11:20:15;4.63;;;3.17;;
6133;SDS011;3098;42.678;23.364;2022-08-01T11:26:06;3.67;;;3.25;;
6133;SDS011;3098;42.678;23.364;2022-08-01T11:28:35;4.53;;;3.95;;
6133;SDS011;3098;42.678;23.364;2022-08-01T11:33:53;4.65;;;3.15;;
6133;SDS011;3098;42.678;23.364;2022-08-01T11:36:22;4.32;;;3.45;;
6133;SDS011;3098;42.678;23.364;2022-08-01T11:39:10;3.90;;;2.95;;
6133;SDS011;3098;42.678;23.364;2022-08-01T11:41:41;3.90;;;3.17;;
6133;SDS011;3098;42.678;23.364;2022-08-01T11:44:10;4.80;;;3.60;;
6133;SDS011;3098;42.678;23.364;2022-08-01T11:46:45;4.28;;;2.85;;
6133;SDS011;3098;42.678;23.364;2022-08-01T11:49:23;8.90;;;3.03;;
6133;SDS011;3098;42.678;23.364;2022-08-01T11:51:58;5.32;;;3.78;;
6133;SDS011;3098;42.678;23.364;2022-08-01T11:54:31;3.65;;;3.20;;
6133;SDS011;3098;42.678;23.364;2022-08-01T11:57:01;3.70;;;3.10;;
6133;SDS011;3098;42.678;23.364;2022-08-01T11:59:35;8.60;;;3.60;;
6133;SDS011;3098;42.678;23.364;2022-08-01T12:02:17;7.13;;;3.78;;
6133;SDS011;3098;42.678;23.364;2022-08-01T12:04:50;4.03;;;3.60;;
6133;SDS011;3098;42.678;23.364;2022-08-01T12:07:21;5.28;;;3.28;;
6133;SDS011;3098;42.678;23.364;2022-08-01T12:09:56;5.95;;;3.35;;
6133;SDS011;3098;42.678;23.364;2022-08-01T12:12:26;3.97;;;3.20;;
6133;SDS011;3098;42.678;23.364;2022-08-01T12:14:54;5.53;;;3.78;;
6133;SDS011;3098;42.678;23.364;2022-08-01T12:17:28;5.25;;;3.75;;
6133;SDS011;3098;42.678;23.364;2022-08-01T12:19:59;6.90;;;3.75;;
6133;SDS011;3098;42.678;23.364;2022-08-01T12:22:28;5.38;;;3.63;;
6133;SDS011;3098;42.678;23.364;2022-08-01T12:24:55;6.00;;;3.70;;
6133;SDS011;3098;42.678;23.364;2022-08-01T12:27:30;3.65;;;3.35;;
6133;SDS011;3098;42.678;23.364;2022-08-01T12:29:57;4.00;;;3.53;;
6133;SDS011;3098;42.678;23.364;2022-08-01T12:32:26;10.77;;;6.85;;
6133;SDS011;3098;42.678;23.364;2022-08-01T12:34:56;7.57;;;4.13;;
6133;SDS011;3098;42.678;23.364;2022-08-01T12:37:28;6.72;;;3.85;;
6133;SDS011;3098;42.678;23.364;2022-08-01T12:39:56;6.80;;;4.15;;
6133;SDS011;3098;42.678;23.364;2022-08-01T12:42:24;4.97;;;3.95;;
6133;SDS011;3098;42.678;23.364;2022-08-01T12:44:52;5.95;;;4.00;;
6133;SDS011;3098;42.678;23.364;2022-08-01T12:47:19;6.18;;;4.40;;
6133;SDS011;3098;42.678;23.364;2022-08-01T12:49:48;5.78;;;3.92;;
6133;SDS011;3098;42.678;23.364;2022-08-01T12:52:16;4.97;;;3.78;;
6133;SDS011;3098;42.678;23.364;2022-08-01T12:55:05;8.25;;;3.70;;
6133;SDS011;3098;42.678;23.364;2022-08-01T12:57:35;4.90;;;4.10;;
6133;SDS011;3098;42.678;23.364;2022-08-01T13:00:11;5.05;;;3.90;;
6133;SDS011;3098;42.678;23.364;2022-08-01T13:02:40;4.15;;;3.75;;
6133;SDS011;3098;42.678;23.364;2022-08-01T13:05:08;9.20;;;3.50;;
6133;SDS011;3098;42.678;23.364;2022-08-01T13:07:37;5.78;;;3.33;;
6133;SDS011;3098;42.678;23.364;2022-08-01T13:10:10;7.00;;;3.80;;
6133;SDS011;3098;42.678;23.364;2022-08-01T13:12:39;6.82;;;3.80;;
6133;SDS011;3098;42.678;23.364;2022-08-01T13:15:17;7.35;;;3.90;;
6133;SDS011;3098;42.678;23.364;2022-08-01T13:17:45;4.65;;;3.88;;
6133;SDS011;3098;42.678;23.364;2022-08-01T13:20:20;5.60;;;3.70;;
6133;SDS011;3098;42.678;23.364;2022-08-01T13:22:49;4.18;;;3.55;;
6133;SDS011;3098;42.678;23.364;2022-08-01T13:25:18;5.65;;;4.18;;
6133;SDS011;3098;42.678;23.364;2022-08-01T13:27:46;5.82;;;3.53;;
6133;SDS011;3098;42.678;23.364;2022-08-01T13:30:13;3.75;;;3.33;;
6133;SDS011;3098;42.678;23.364;2022-08-01T13:32:42;4.95;;;3.97;;
6133;SDS011;3098;42.678;23.364;2022-08-01T13:35:10;5.30;;;3.85;;
6133;SDS011;3098;42.678;23.364;2022-08-01T13:37:40;8.20;;;5.53;;
6133;SDS011;3098;42.678;23.364;2022-08-01T13:40:09;9.73;;;3.72;;
6133;SDS011;3098;42.678;23.364;2022-08-01T13:42:38;5.97;;;4.20;;
6133;SDS011;3098;42.678;23.364;2022-08-01T13:45:05;5.35;;;3.70;;
6133;SDS011;3098;42.678;23.364;2022-08-01T13:47:36;5.05;;;3.72;;
6133;SDS011;3098;42.678;23.364;2022-08-01T13:50:03;5.10;;;3.35;;
6133;SDS011;3098;42.678;23.364;2022-08-01T13:52:31;6.05;;;3.53;;
6133;SDS011;3098;42.678;23.364;2022-08-01T13:55:00;8.07;;;3.78;;
6133;SDS011;3098;42.678;23.364;2022-08-01T13:57:27;4.68;;;3.72;;
6133;SDS011;3098;42.678;23.364;2022-08-01T13:59:57;7.90;;;3.47;;
6133;SDS011;3098;42.678;23.364;2022-08-01T14:02:25;5.43;;;3.88;;
6133;SDS011;3098;42.678;23.364;2022-08-01T14:04:53;9.43;;;4.18;;
6133;SDS011;3098;42.678;23.364;2022-08-01T14:07:20;4.55;;;3.55;;
6133;SDS011;3098;42.678;23.364;2022-08-01T14:09:47;5.07;;;3.67;;
6133;SDS011;3098;42.678;23.364;2022-08-01T14:12:15;4.47;;;3.45;;
6133;SDS011;3098;42.678;23.364;2022-08-01T14:14:41;5.82;;;3.40;;
6133;SDS011;3098;42.678;23.364;2022-08-01T14:17:10;5.20;;;3.33;;
6133;SDS011;3098;42.678;23.364;2022-08-01T14:19:38;4.85;;;3.55;;
6133;SDS011;3098;42.678;23.364;2022-08-01T14:22:06;4.88;;;3.33;;
6133;SDS011;3098;42.678;23.364;2022-08-01T14:24:33;5.05;;;3.65;;
6133;SDS011;3098;42.678;23.364;2022-08-01T14:27:00;3.83;;;3.47;;
6133;SDS011;3098;42.678;23.364;2022-08-01T14:29:27;7.55;;;3.67;;
6133;SDS011;3098;42.678;23.364;2022-08-01T14:31:54;8.70;;;5.35;;
6133;SDS011;3098;42.678;23.364;2022-08-01T14:34:23;7.75;;;4.03;;
6133;SDS011;3098;42.678;23.364;2022-08-01T14:36:50;5.93;;;3.40;;
6133;SDS011;3098;42.678;23.364;2022-08-01T14:39:18;4.90;;;3.33;;
6133;SDS011;3098;42.678;23.364;2022-08-01T14:41:46;6.05;;;4.72;;
6133;SDS011;3098;42.678;23.364;2022-08-01T14:44:13;7.97;;;3.53;;
6133;SDS011;3098;42.678;23.364;2022-08-01T14:46:40;7.60;;;3.97;;
6133;SDS011;3098;42.678;23.364;2022-08-01T14:49:09;5.60;;;3.50;;
6133;SDS011;3098;42.678;23.364;2022-08-01T14:51:38;11.13;;;3.40;;
6133;SDS011;3098;42.678;23.364;2022-08-01T14:54:05;3.80;;;3.22;;
6133;SDS011;3098;42.678;23.364;2022-08-01T14:56:32;5.57;;;3.60;;
6133;SDS011;3098;42.678;23.364;2022-08-01T14:58:59;5.25;;;3.53;;
6133;SDS011;3098;42.678;23.364;2022-08-01T15:01:27;3.80;;;3.15;;
6133;SDS011;3098;42.678;23.364;2022-08-01T15:03:54;5.50;;;3.20;;
6133;SDS011;3098;42.678;23.364;2022-08-01T15:06:21;4.07;;;3.05;;
6133;SDS011;3098;42.678;23.364;2022-08-01T15:08:49;4.90;;;3.20;;
6133;SDS011;3098;42.678;23.364;2022-08-01T15:11:16;5.50;;;3.50;;
6133;SDS011;3098;42.678;23.364;2022-08-01T15:13:44;3.80;;;3.40;;
6133;SDS011;3098;42.678;23.364;2022-08-01T15:16:31;5.90;;;3.45;;
6133;SDS011;3098;42.678;23.364;2022-08-01T15:18:58;5.97;;;4.75;;
6133;SDS011;3098;42.678;23.364;2022-08-01T15:21:27;5.10;;;3.05;;
6133;SDS011;3098;42.678;23.364;2022-08-01T15:23:56;6.20;;;3.20;;
6133;SDS011;3098;42.678;23.364;2022-08-01T15:26:23;7.47;;;3.40;;
6133;SDS011;3098;42.678;23.364;2022-08-01T15:28:49;5.60;;;2.97;;